createdAt,value
2022-08-12T00:01:12.203Z,100537.78
2022-08-12T00:03:58.836Z,100535.73
2022-08-12T00:06:47.000Z,100534.89
2022-08-12T00:09:33.179Z,100535.65
2022-08-12T00:12:20.703Z,100536.21
2022-08-12T00:15:08.429Z,100540.45
2022-08-12T00:17:54.961Z,100533.52
2022-08-12T00:20:41.076Z,100529.95
2022-08-12T00:23:27.184Z,100528.58
2022-08-12T00:26:22.420Z,100531.09
2022-08-12T00:29:11.910Z,100526.59
2022-08-12T00:32:00.473Z,100525.70
2022-08-12T00:34:48.495Z,100523.44
2022-08-12T00:37:35.896Z,100521.98
2022-08-12T00:40:24.047Z,100518.91
2022-08-12T00:42:53.482Z,100521.58
2022-08-12T00:45:21.378Z,100520.84
2022-08-12T00:47:51.319Z,100519.46
2022-08-12T00:50:21.051Z,100519.76
2022-08-12T00:52:52.536Z,100521.02
2022-08-12T00:55:21.277Z,100519.76
2022-08-12T00:57:51.166Z,100517.99
2022-08-12T01:00:22.223Z,100517.08
2022-08-12T01:02:51.774Z,100517.88
2022-08-12T01:05:39.985Z,100520.83
2022-08-12T01:08:27.526Z,100518.17
2022-08-12T01:11:14.905Z,100518.73
2022-08-12T01:13:48.075Z,100522.58
2022-08-12T01:16:22.113Z,100520.86
2022-08-12T01:18:51.862Z,100520.29
2022-08-12T01:21:46.225Z,100520.98
2022-08-12T01:24:43.145Z,100518.02
2022-08-12T01:27:13.722Z,100519.68
2022-08-12T01:29:44.217Z,100517.98
2022-08-12T01:32:13.929Z,100517.61
2022-08-12T01:34:48.512Z,100517.57
2022-08-12T01:37:19.573Z,100514.55
2022-08-12T01:40:35.558Z,100517.55
2022-08-12T01:42:45.670Z,100518.54
2022-08-12T01:45:16.856Z,100519.34
2022-08-12T01:47:51.284Z,100518.56
2022-08-12T01:50:32.569Z,100513.81
2022-08-12T01:53:04.547Z,100513.50
2022-08-12T01:55:36.680Z,100511.70
2022-08-12T01:58:15.572Z,100508.34
2022-08-12T02:00:55.491Z,100507.45
2022-08-12T02:04:02.346Z,100505.48
2022-08-12T02:07:04.712Z,100501.95
2022-08-12T02:10:07.637Z,100499.30
2022-08-12T02:12:48.608Z,100496.88
2022-08-12T02:15:26.814Z,100494.23
2022-08-12T02:18:11.557Z,100493.91
2022-08-12T02:21:01.455Z,100489.81
2022-08-12T02:23:30.835Z,100490.73
2022-08-12T02:26:04.308Z,100488.11
2022-08-12T02:28:32.923Z,100479.39
2022-08-12T02:31:05.778Z,100481.06
2022-08-12T02:33:34.375Z,100481.35
2022-08-12T02:36:04.096Z,100479.02
2022-08-12T02:38:32.473Z,100472.59
2022-08-12T02:41:04.423Z,100476.90
2022-08-12T02:43:36.641Z,100479.59
2022-08-12T02:46:13.404Z,100481.65
2022-08-12T02:48:49.716Z,100478.69
2022-08-12T02:51:19.921Z,100482.38
2022-08-12T02:54:04.663Z,100481.41
2022-08-12T02:56:37.296Z,100486.42
2022-08-12T02:59:06.392Z,100483.20
2022-08-12T03:01:47.767Z,100483.21
2022-08-12T03:04:25.935Z,100484.83
2022-08-12T03:07:02.129Z,100488.72
2022-08-12T03:09:39.084Z,100491.84
2022-08-12T03:12:24.622Z,100493.84
2022-08-12T03:14:55.505Z,100497.42
2022-08-12T03:17:29.017Z,100497.55
2022-08-12T03:20:10.104Z,100497.96
2022-08-12T03:22:40.287Z,100497.70
2022-08-12T03:25:15.738Z,100498.14
2022-08-12T03:27:49.119Z,100496.92
2022-08-12T03:30:19.138Z,100497.91
2022-08-12T03:32:49.559Z,100503.89
2022-08-12T03:35:40.448Z,100501.57
2022-08-12T03:38:15.321Z,100505.45
2022-08-12T03:41:15.178Z,100502.48
2022-08-12T03:44:10.064Z,100504.67
2022-08-12T03:47:00.603Z,100510.42
2022-08-12T03:49:47.309Z,100513.08
2022-08-12T03:52:33.764Z,100517.44
2022-08-12T03:55:20.572Z,100516.10
2022-08-12T03:58:08.695Z,100521.06
2022-08-12T04:00:37.385Z,100522.13
2022-08-12T04:03:25.279Z,100522.72
2022-08-12T04:05:55.901Z,100524.80
2022-08-12T04:08:26.558Z,100529.75
2022-08-12T04:11:14.510Z,100533.52
2022-08-12T04:13:42.265Z,100534.15
2022-08-12T04:16:12.889Z,100538.45
2022-08-12T04:18:41.698Z,100544.63
2022-08-12T04:21:09.877Z,100546.76
2022-08-12T04:23:38.391Z,100548.66
2022-08-12T04:26:06.555Z,100547.36
2022-08-12T04:28:34.346Z,100547.35
2022-08-12T04:31:03.990Z,100550.89
2022-08-12T04:33:32.424Z,100554.85
2022-08-12T04:36:00.309Z,100551.45
2022-08-12T04:38:31.506Z,100551.98
2022-08-12T04:40:59.958Z,100551.91
2022-08-12T04:44:01.502Z,100548.27
2022-08-12T04:46:19.543Z,100551.80
2022-08-12T04:48:50.943Z,100548.10
2022-08-12T04:51:21.034Z,100550.86
2022-08-12T04:53:49.900Z,100548.21
2022-08-12T04:56:18.451Z,100550.45
2022-08-12T04:58:52.072Z,100555.36
2022-08-12T05:01:20.468Z,100554.90
2022-08-12T05:03:51.046Z,100554.59
2022-08-12T05:06:26.343Z,100555.64
2022-08-12T05:08:55.996Z,100557.73
2022-08-12T05:11:24.574Z,100554.20
2022-08-12T05:13:57.230Z,100557.31
2022-08-12T05:16:30.894Z,100560.39
2022-08-12T05:19:01.614Z,100564.30
2022-08-12T05:21:30.370Z,100568.95
2022-08-12T05:23:58.147Z,100568.71
2022-08-12T05:26:26.553Z,100570.40
2022-08-12T05:28:54.460Z,100577.05
2022-08-12T05:31:47.228Z,100583.42
2022-08-12T05:34:13.877Z,100580.83
2022-08-12T05:36:43.112Z,100579.86
2022-08-12T05:39:10.880Z,100582.55
2022-08-12T05:41:39.273Z,100584.79
2022-08-12T05:44:09.271Z,100585.59
2022-08-12T05:46:37.679Z,100586.91
2022-08-12T05:49:06.093Z,100587.30
2022-08-12T05:51:40.800Z,100590.21
2022-08-12T05:54:10.732Z,100593.08
2022-08-12T05:56:39.391Z,100595.72
2022-08-12T05:59:10.503Z,100599.71
2022-08-12T06:02:09.255Z,100602.42
2022-08-12T06:04:27.204Z,100605.55
2022-08-12T06:06:55.166Z,100610.80
2022-08-12T06:09:24.904Z,100613.86
2022-08-12T06:12:04.913Z,100611.61
2022-08-12T06:14:35.837Z,100613.80
2022-08-12T06:17:04.990Z,100613.86
2022-08-12T06:20:26.015Z,100613.48
2022-08-12T06:22:20.608Z,100611.45
2022-08-12T06:24:49.079Z,100610.83
2022-08-12T06:27:18.009Z,100613.13
2022-08-12T06:30:08.821Z,100613.77
2022-08-12T06:32:34.481Z,100612.10
2022-08-12T06:35:23.027Z,100612.70
2022-08-12T06:37:56.645Z,100610.45
2022-08-12T06:40:44.520Z,100608.49
2022-08-12T06:43:13.441Z,100606.81
2022-08-12T06:45:46.075Z,100604.35
2022-08-12T06:48:15.927Z,100607.52
2022-08-12T06:50:45.389Z,100607.13
2022-08-12T06:53:13.274Z,100602.98
2022-08-12T06:55:58.013Z,100603.16
2022-08-12T06:58:27.148Z,100606.73
2022-08-12T07:00:57.134Z,100605.52
2022-08-12T07:03:28.027Z,100606.44
2022-08-12T07:05:58.724Z,100596.67
2022-08-12T07:08:28.313Z,100598.89
2022-08-12T07:10:58.808Z,100597.85
2022-08-12T07:13:28.157Z,100596.72
2022-08-12T07:15:55.965Z,100596.53
2022-08-12T07:18:29.465Z,100594.60
2022-08-12T07:20:59.798Z,100598.40
2022-08-12T07:23:30.124Z,100596.98
2022-08-12T07:25:58.534Z,100593.16
2022-08-12T07:28:30.313Z,100595.91
2022-08-12T07:30:58.454Z,100593.94
2022-08-12T07:33:28.767Z,100594.48
2022-08-12T07:35:58.882Z,100596.34
2022-08-12T07:38:30.444Z,100598.30
2022-08-12T07:41:02.681Z,100598.54
2022-08-12T07:43:31.800Z,100599.23
2022-08-12T07:46:00.074Z,100600.63
2022-08-12T07:48:34.252Z,100599.55
2022-08-12T07:51:02.383Z,100601.42
2022-08-12T07:53:30.223Z,100599.92
2022-08-12T07:55:57.978Z,100599.84
2022-08-12T07:58:26.848Z,100599.80
2022-08-12T08:00:56.958Z,100594.69
2022-08-12T08:03:25.495Z,100588.36
2022-08-12T08:05:53.680Z,100584.68
2022-08-12T08:08:24.249Z,100584.03
2022-08-12T08:11:16.382Z,100583.76
2022-08-12T08:13:46.541Z,100578.85
2022-08-12T08:16:15.317Z,100576.56
2022-08-12T08:18:43.515Z,100576.08
2022-08-12T08:21:11.730Z,100572.34
2022-08-12T08:24:02.016Z,100574.17
2022-08-12T08:26:33.187Z,100567.70
2022-08-12T08:29:02.410Z,100567.14
2022-08-12T08:31:31.977Z,100566.57
2022-08-12T08:34:47.197Z,100566.48
2022-08-12T08:36:49.255Z,100565.42
2022-08-12T08:39:17.220Z,100564.66
2022-08-12T08:42:16.871Z,100561.13
2022-08-12T08:44:49.776Z,100561.34
2022-08-12T08:47:26.126Z,100560.46
2022-08-12T08:50:00.307Z,100557.85
2022-08-12T08:52:40.053Z,100556.52
2022-08-12T08:55:10.497Z,100553.02
2022-08-12T08:57:44.181Z,100551.25
2022-08-12T09:00:17.685Z,100547.20
2022-08-12T09:02:49.204Z,100544.08
2022-08-12T09:05:27.031Z,100540.33
2022-08-12T09:08:09.038Z,100540.57
2022-08-12T09:10:45.002Z,100546.62
2022-08-12T09:16:16.774Z,100545.73
2022-08-12T09:18:48.414Z,100541.23
2022-08-12T09:21:23.205Z,100540.40
2022-08-12T09:24:00.368Z,100534.96
2022-08-12T09:26:46.021Z,100534.23
2022-08-12T09:29:15.399Z,100536.02
2022-08-12T09:32:03.969Z,100535.82
2022-08-12T09:34:33.575Z,100533.52
2022-08-12T09:37:20.099Z,100537.74
2022-08-12T09:40:06.207Z,100530.77
2022-08-12T09:43:18.049Z,100525.20
2022-08-12T09:46:11.499Z,100526.32
2022-08-12T09:48:36.699Z,100522.87
2022-08-12T09:51:16.903Z,100517.23
2022-08-12T09:54:08.654Z,100511.15
2022-08-12T09:57:00.870Z,100501.85
2022-08-12T10:00:12.897Z,100499.63
2022-08-12T10:02:42.719Z,100498.61
2022-08-12T10:05:04.247Z,100497.49
2022-08-12T10:07:39.663Z,100502.11
2022-08-12T10:10:24.372Z,100493.05
2022-08-12T10:13:20.539Z,100487.73
2022-08-12T10:16:06.037Z,100482.71
2022-08-12T10:18:36.650Z,100477.69
2022-08-12T10:21:23.318Z,100477.41
2022-08-12T10:23:56.741Z,100468.41
2022-08-12T10:26:39.931Z,100473.26
2022-08-12T10:30:38.427Z,100461.41
2022-08-12T10:32:45.396Z,100462.86
2022-08-12T10:35:09.327Z,100451.53
2022-08-12T10:38:37.172Z,100451.56
2022-08-12T10:40:32.023Z,100450.13
2022-08-12T10:43:18.533Z,100452.22
2022-08-12T10:45:48.467Z,100448.63
2022-08-12T10:48:21.268Z,100447.98
2022-08-12T10:50:58.362Z,100451.02
2022-08-12T10:53:45.864Z,100441.08
2022-08-12T10:56:15.666Z,100435.38
2022-08-12T10:58:45.881Z,100439.73
2022-08-12T11:04:15.131Z,100435.35
2022-08-12T11:04:20.236Z,100432.23
2022-08-12T11:07:06.569Z,100428.05
2022-08-12T11:09:59.790Z,100414.37
2022-08-12T11:12:56.505Z,100418.10
2022-08-12T11:15:33.525Z,100418.05
2022-08-12T11:18:12.101Z,100422.13
2022-08-12T11:20:47.173Z,100419.17
2022-08-12T11:23:24.981Z,100420.73
2022-08-12T11:26:06.319Z,100414.05
2022-08-12T11:28:37.672Z,100414.55
2022-08-12T11:31:12.355Z,100411.06
2022-08-12T11:34:05.050Z,100411.84
2022-08-12T11:36:30.930Z,100407.02
2022-08-12T11:39:04.148Z,100408.41
2022-08-12T11:41:33.902Z,100395.34
2022-08-12T11:44:35.200Z,100396.57
2022-08-12T11:46:52.661Z,100390.56
2022-08-12T11:49:30.532Z,100391.46
2022-08-12T11:52:03.498Z,100385.96
2022-08-12T11:54:33.511Z,100379.28
2022-08-12T11:57:02.739Z,100385.45
2022-08-12T12:02:40.269Z,100378.95
2022-08-12T12:05:09.155Z,100371.59
2022-08-12T12:08:37.532Z,100371.11
2022-08-12T12:10:29.129Z,100373.66
2022-08-12T12:12:57.080Z,100371.67
2022-08-12T12:15:37.354Z,100373.27
2022-08-12T12:18:22.536Z,100373.35
2022-08-12T12:21:02.194Z,100369.14
2022-08-12T12:23:36.235Z,100372.16
2022-08-12T12:26:07.908Z,100367.05
2022-08-12T12:28:39.779Z,100357.67
2022-08-12T12:31:15.066Z,100351.09
2022-08-12T12:33:58.581Z,100351.91
2022-08-12T12:36:30.232Z,100351.65
2022-08-12T12:39:00.080Z,100347.51
2022-08-12T12:42:41.794Z,100339.84
2022-08-12T12:44:26.124Z,100339.61
2022-08-12T12:47:04.878Z,100332.73
2022-08-12T12:49:53.640Z,100332.16
2022-08-12T12:52:21.704Z,100329.01
2022-08-12T12:54:57.822Z,100329.23
2022-08-12T12:57:36.459Z,100326.52
2022-08-12T13:00:16.835Z,100327.36
2022-08-12T13:02:53.627Z,100336.64
2022-08-12T13:05:27.883Z,100332.09
2022-08-12T13:08:01.044Z,100326.39
2022-08-12T13:10:36.552Z,100316.77
2022-08-12T13:14:07.878Z,100315.06
2022-08-12T13:15:59.276Z,100318.29
2022-08-12T13:18:30.733Z,100316.52
2022-08-12T13:20:59.579Z,100317.30
2022-08-12T13:23:36.114Z,100314.80
2022-08-12T13:26:07.105Z,100314.89
2022-08-12T13:28:45.018Z,100313.01
2022-08-12T13:31:24.927Z,100315.60
2022-08-12T13:34:32.838Z,100311.17
2022-08-12T13:36:41.568Z,100305.09
2022-08-12T13:39:09.676Z,100295.16
2022-08-12T13:41:38.315Z,100302.63
2022-08-12T13:44:10.626Z,100298.91
2022-08-12T13:46:41.324Z,100302.13
2022-08-12T13:49:17.642Z,100303.23
2022-08-12T13:52:01.648Z,100301.12
2022-08-12T13:54:29.385Z,100303.45
2022-08-12T13:56:57.191Z,100307.42
2022-08-12T13:59:26.714Z,100313.52
2022-08-12T14:01:56.810Z,100305.84
2022-08-12T14:04:23.868Z,100302.64
2022-08-12T14:06:53.292Z,100299.48
2022-08-12T14:09:21.121Z,100293.25
2022-08-12T14:11:59.180Z,100282.64
2022-08-12T14:14:31.466Z,100284.02
2022-08-12T14:17:09.988Z,100279.76
2022-08-12T14:20:00.393Z,100274.21
2022-08-12T14:22:29.144Z,100275.46
2022-08-12T14:24:58.374Z,100270.65
2022-08-12T14:28:03.515Z,100265.77
2022-08-12T14:30:24.114Z,100265.39
2022-08-12T14:33:02.875Z,100261.36
2022-08-12T14:35:41.092Z,100267.85
2022-08-12T14:38:25.450Z,100267.90
2022-08-12T14:40:56.832Z,100264.48
2022-08-12T14:43:26.916Z,100271.43
2022-08-12T14:46:01.596Z,100274.36
2022-08-12T14:48:30.052Z,100267.80
2022-08-12T14:52:10.410Z,100263.73
2022-08-12T14:55:05.698Z,100260.02
2022-08-12T14:59:57.637Z,100260.56
2022-08-12T15:02:28.919Z,100259.59
2022-08-12T15:04:59.946Z,100260.88
2022-08-12T15:07:34.469Z,100262.98
2022-08-12T15:10:31.725Z,100262.91
2022-08-12T15:13:05.017Z,100262.50
2022-08-12T15:15:44.073Z,100258.90
2022-08-12T15:18:15.666Z,100260.52
2022-08-12T15:20:50.678Z,100259.27
2022-08-12T15:23:21.583Z,100256.79
2022-08-12T15:26:02.445Z,100259.60
2022-08-12T15:28:33.238Z,100261.42
2022-08-12T15:31:02.516Z,100262.25
2022-08-12T15:33:44.924Z,100259.98
2022-08-12T15:36:19.492Z,100253.30
2022-08-12T15:39:03.974Z,100251.52
2022-08-12T15:41:49.110Z,100251.23
2022-08-12T15:44:38.502Z,100250.97
2022-08-12T15:47:07.199Z,100249.02
2022-08-12T15:49:55.003Z,100244.94
2022-08-12T15:52:27.934Z,100248.33
2022-08-12T15:54:59.105Z,100246.30
2022-08-12T15:57:50.356Z,100246.54
2022-08-12T16:00:32.791Z,100245.83
2022-08-12T16:03:05.785Z,100248.36
2022-08-12T16:06:11.359Z,100251.42
2022-08-12T16:08:31.783Z,100250.45
2022-08-12T16:11:00.267Z,100251.50
2022-08-12T16:13:39.296Z,100249.02
2022-08-12T16:16:23.750Z,100246.58
2022-08-12T16:18:56.638Z,100246.84
2022-08-12T16:21:52.306Z,100245.54
2022-08-12T16:24:12.849Z,100244.17
2022-08-12T16:26:42.328Z,100247.40
2022-08-12T16:29:15.648Z,100246.45
2022-08-12T16:31:44.799Z,100246.65
2022-08-12T16:34:25.825Z,100250.73
2022-08-12T16:37:03.701Z,100247.35
2022-08-12T16:39:35.302Z,100245.70
2022-08-12T16:42:23.969Z,100243.90
2022-08-12T16:44:58.793Z,100243.83
2022-08-12T16:47:27.534Z,100238.18
2022-08-12T16:49:57.274Z,100235.50
2022-08-12T16:52:25.101Z,100238.77
2022-08-12T16:54:53.231Z,100237.60
2022-08-12T16:57:43.046Z,100231.77
2022-08-12T17:00:16.323Z,100228.40
2022-08-12T17:02:50.664Z,100225.09
2022-08-12T17:05:31.317Z,100223.91
2022-08-12T17:07:59.597Z,100221.11
2022-08-12T17:10:35.575Z,100225.67
2022-08-12T17:13:09.885Z,100229.09
2022-08-12T17:15:57.004Z,100231.21
2022-08-12T17:18:44.043Z,100233.70
2022-08-12T17:21:19.782Z,100235.08
2022-08-12T17:23:53.627Z,100230.47
2022-08-12T17:26:28.280Z,100226.25
2022-08-12T17:29:00.225Z,100222.81
2022-08-12T17:32:00.233Z,100226.26
2022-08-12T17:34:33.620Z,100229.64
2022-08-12T17:37:04.942Z,100226.45
2022-08-12T17:39:36.676Z,100229.05
2022-08-12T17:42:32.539Z,100231.94
2022-08-12T17:45:17.822Z,100234.68
2022-08-12T17:48:01.539Z,100234.17
2022-08-12T17:50:36.093Z,100236.34
2022-08-12T17:53:05.664Z,100237.67
2022-08-12T17:55:44.113Z,100240.42
2022-08-12T17:58:17.122Z,100240.15
2022-08-12T18:00:45.596Z,100246.72
2022-08-12T18:03:58.233Z,100248.20
2022-08-12T18:06:13.729Z,100249.48
2022-08-12T18:08:54.181Z,100246.21
2022-08-12T18:12:06.519Z,100247.98
2022-08-12T18:14:37.040Z,100249.05
2022-08-12T18:17:08.888Z,100251.14
2022-08-12T18:20:05.808Z,100255.22
2022-08-12T18:22:40.768Z,100260.21
2022-08-12T18:26:12.270Z,100264.27
2022-08-12T18:28:15.672Z,100264.59
2022-08-12T18:30:52.191Z,100265.05
2022-08-12T18:33:24.239Z,100269.83
2022-08-12T18:35:55.531Z,100274.39
2022-08-12T18:38:26.342Z,100272.52
2022-08-12T18:41:22.084Z,100273.20
2022-08-12T18:44:01.105Z,100273.24
2022-08-12T18:46:46.664Z,100277.15
2022-08-12T18:49:18.938Z,100281.17
2022-08-12T18:51:55.635Z,100284.80
2022-08-12T18:54:34.211Z,100286.50
2022-08-12T18:57:06.453Z,100285.11
2022-08-12T19:00:01.450Z,100291.29
2022-08-12T19:02:36.264Z,100289.52
2022-08-12T19:05:09.317Z,100289.23
2022-08-12T19:07:57.962Z,100297.25
2022-08-12T19:10:30.959Z,100299.69
2022-08-12T19:13:24.224Z,100299.33
2022-08-12T19:15:57.943Z,100299.77
2022-08-12T19:18:29.832Z,100303.64
2022-08-12T19:20:59.805Z,100306.17
2022-08-12T19:23:35.555Z,100305.21
2022-08-12T19:26:04.595Z,100306.34
2022-08-12T19:28:35.566Z,100307.09
2022-08-12T19:31:57.562Z,100311.23
2022-08-12T19:37:22.901Z,100316.50
2022-08-12T19:40:09.950Z,100317.12
2022-08-12T19:42:53.315Z,100320.31
2022-08-12T19:45:22.364Z,100318.27
2022-08-12T19:47:50.121Z,100318.95
2022-08-12T19:50:20.265Z,100321.88
2022-08-12T19:52:51.127Z,100320.17
2022-08-12T19:55:23.677Z,100323.71
2022-08-12T19:58:01.791Z,100326.92
2022-08-12T20:00:31.811Z,100329.48
2022-08-12T20:02:59.743Z,100327.78
2022-08-12T20:06:04.740Z,100332.48
2022-08-12T20:08:27.929Z,100337.65
2022-08-12T20:12:12.352Z,100335.88
2022-08-12T20:14:01.537Z,100336.54
2022-08-12T20:16:52.325Z,100337.84
2022-08-12T20:19:53.295Z,100337.30
2022-08-12T20:22:24.792Z,100337.12
2022-08-12T20:25:01.465Z,100334.42
2022-08-12T20:28:03.397Z,100332.98
2022-08-12T20:30:20.502Z,100333.67
2022-08-12T20:33:08.022Z,100339.17
2022-08-12T20:36:12.794Z,100336.20
2022-08-12T20:38:38.769Z,100338.80
2022-08-12T20:41:16.232Z,100338.45
2022-08-12T20:43:45.662Z,100340.66
2022-08-12T20:46:14.208Z,100338.51
2022-08-12T20:48:43.722Z,100343.96
2022-08-12T20:51:13.558Z,100341.07
2022-08-12T20:53:57.959Z,100342.36
2022-08-12T20:56:32.236Z,100344.60
2022-08-12T20:59:02.670Z,100345.40
2022-08-12T21:01:46.651Z,100351.02
2022-08-12T21:04:36.144Z,100355.56
2022-08-12T21:07:09.329Z,100354.08
2022-08-12T21:09:40.996Z,100356.16
2022-08-12T21:12:28.159Z,100356.92
2022-08-12T21:15:18.099Z,100355.23
2022-08-12T21:18:08.733Z,100354.80
2022-08-12T21:20:43.997Z,100356.10
2022-08-12T21:23:13.153Z,100354.77
2022-08-12T21:25:45.222Z,100356.27
2022-08-12T21:28:13.990Z,100358.39
2022-08-12T21:30:42.417Z,100362.17
2022-08-12T21:33:30.858Z,100363.25
2022-08-12T21:36:00.298Z,100362.77
2022-08-12T21:38:34.918Z,100365.70
2022-08-12T21:41:07.015Z,100365.45
2022-08-12T21:43:44.479Z,100365.38
2022-08-12T21:46:14.922Z,100362.98
2022-08-12T21:49:04.852Z,100363.73
2022-08-12T21:51:49.504Z,100367.61
2022-08-12T21:54:22.013Z,100365.27
2022-08-12T21:56:52.377Z,100365.64
2022-08-12T21:59:21.480Z,100363.73
2022-08-12T22:01:49.934Z,100365.90
2022-08-12T22:04:36.460Z,100368.25
2022-08-12T22:07:05.741Z,100369.63
2022-08-12T22:09:42.568Z,100372.46
2022-08-12T22:12:29.894Z,100374.02
2022-08-12T22:14:57.681Z,100378.92
2022-08-12T22:17:32.877Z,100378.78
2022-08-12T22:20:17.996Z,100377.45
2022-08-12T22:22:56.297Z,100377.98
2022-08-12T22:25:28.007Z,100376.70
2022-08-12T22:28:14.031Z,100378.84
2022-08-12T22:31:00.136Z,100386.47
2022-08-12T22:33:27.943Z,100382.29
2022-08-12T22:35:59.242Z,100379.03
2022-08-12T22:38:29.233Z,100383.19
2022-08-12T22:41:01.243Z,100379.52
2022-08-12T22:44:00.266Z,100383.02
2022-08-12T22:46:51.886Z,100378.20
2022-08-12T22:49:37.175Z,100379.91
2022-08-12T22:52:11.733Z,100378.90
2022-08-12T22:54:46.127Z,100380.52
2022-08-12T22:57:53.206Z,100372.44
2022-08-12T23:00:23.889Z,100368.55
2022-08-12T23:02:56.656Z,100366.57
2022-08-12T23:05:57.236Z,100365.43
2022-08-12T23:08:21.481Z,100365.27
2022-08-12T23:10:50.313Z,100367.39
2022-08-12T23:13:43.477Z,100370.66
2022-08-12T23:16:28.501Z,100369.77
2022-08-12T23:19:10.691Z,100372.24
2022-08-12T23:22:03.958Z,100373.09
2022-08-12T23:24:53.777Z,100370.41
2022-08-12T23:27:51.812Z,100375.40
2022-08-12T23:30:31.950Z,100374.20
2022-08-12T23:33:20.511Z,100373.89
2022-08-12T23:36:02.580Z,100373.04
2022-08-12T23:38:32.848Z,100376.85
2022-08-12T23:41:03.301Z,100379.58
2022-08-12T23:43:39.349Z,100377.09
2022-08-12T23:46:10.051Z,100373.86
2022-08-12T23:48:38.973Z,100377.02
2022-08-12T23:51:22.399Z,100373.85
2022-08-12T23:53:55.473Z,100375.02
2022-08-12T23:56:23.278Z,100377.89
2022-08-12T23:58:54.292Z,100381.32
